sensor_id;sensor_type;location;lat;lon;timestamp;P1;durP1;ratioP1;P2;durP2;ratioP2
9108;SDS011;4590;51.462;6.692;2023-05-17T00:01:03;6.27;;;1.93;;
9108;SDS011;4590;51.462;6.692;2023-05-17T00:03:28;11.63;;;1.77;;
9108;SDS011;4590;51.462;6.692;2023-05-17T00:05:54;6.10;;;1.73;;
9108;SDS011;4590;51.462;6.692;2023-05-17T00:11:41;4.00;;;2.08;;
9108;SDS011;4590;51.462;6.692;2023-05-17T00:14:07;4.40;;;1.60;;
9108;SDS011;4590;51.462;6.692;2023-05-17T00:16:32;5.43;;;1.50;;
9108;SDS011;4590;51.462;6.692;2023-05-17T00:18:58;5.03;;;2.00;;
9108;SDS011;4590;51.462;6.692;2023-05-17T00:21:24;7.37;;;2.30;;
9108;SDS011;4590;51.462;6.692;2023-05-17T00:23:49;5.20;;;2.00;;
9108;SDS011;4590;51.462;6.692;2023-05-17T00:26:15;5.93;;;2.33;;
9108;SDS011;4590;51.462;6.692;2023-05-17T00:28:40;4.17;;;1.90;;
9108;SDS011;4590;51.462;6.692;2023-05-17T00:34:28;5.82;;;1.90;;
9108;SDS011;4590;51.462;6.692;2023-05-17T00:36:53;7.50;;;2.10;;
9108;SDS011;4590;51.462;6.692;2023-05-17T00:39:19;5.60;;;1.97;;
9108;SDS011;4590;51.462;6.692;2023-05-17T00:41:44;6.18;;;2.10;;
9108;SDS011;4590;51.462;6.692;2023-05-17T00:44:10;4.70;;;2.00;;
9108;SDS011;4590;51.462;6.692;2023-05-17T00:46:35;6.77;;;1.80;;
9108;SDS011;4590;51.462;6.692;2023-05-17T00:49:11;5.70;;;2.17;;
9108;SDS011;4590;51.462;6.692;2023-05-17T00:51:37;6.45;;;1.92;;
9108;SDS011;4590;51.462;6.692;2023-05-17T00:54:03;3.35;;;1.88;;
9108;SDS011;4590;51.462;6.692;2023-05-17T00:56:29;8.55;;;2.10;;
9108;SDS011;4590;51.462;6.692;2023-05-17T00:58:55;3.10;;;1.90;;
9108;SDS011;4590;51.462;6.692;2023-05-17T01:01:35;4.82;;;2.00;;
9108;SDS011;4590;51.462;6.692;2023-05-17T01:04:05;6.20;;;2.10;;
9108;SDS011;4590;51.462;6.692;2023-05-17T01:06:31;5.70;;;2.17;;
9108;SDS011;4590;51.462;6.692;2023-05-17T01:08:56;5.53;;;2.00;;
9108;SDS011;4590;51.462;6.692;2023-05-17T01:11:28;8.47;;;3.20;;
9108;SDS011;4590;51.462;6.692;2023-05-17T01:14:12;4.63;;;2.10;;
9108;SDS011;4590;51.462;6.692;2023-05-17T01:17:03;6.70;;;2.03;;
9108;SDS011;4590;51.462;6.692;2023-05-17T01:19:44;4.82;;;2.08;;
9108;SDS011;4590;51.462;6.692;2023-05-17T01:27:40;6.55;;;2.33;;
9108;SDS011;4590;51.462;6.692;2023-05-17T01:30:11;4.07;;;2.10;;
9108;SDS011;4590;51.462;6.692;2023-05-17T01:32:39;5.57;;;2.40;;
9108;SDS011;4590;51.462;6.692;2023-05-17T01:35:06;6.80;;;2.25;;
9108;SDS011;4590;51.462;6.692;2023-05-17T01:37:32;9.13;;;2.67;;
9108;SDS011;4590;51.462;6.692;2023-05-17T01:43:10;6.15;;;2.35;;
9108;SDS011;4590;51.462;6.692;2023-05-17T01:45:46;6.70;;;2.30;;
9108;SDS011;4590;51.462;6.692;2023-05-17T01:48:22;5.38;;;2.22;;
9108;SDS011;4590;51.462;6.692;2023-05-17T01:50:56;6.53;;;2.65;;
9108;SDS011;4590;51.462;6.692;2023-05-17T01:53:28;5.18;;;2.20;;
9108;SDS011;4590;51.462;6.692;2023-05-17T01:55:56;4.93;;;2.55;;
9108;SDS011;4590;51.462;6.692;2023-05-17T01:58:36;5.95;;;2.80;;
9108;SDS011;4590;51.462;6.692;2023-05-17T02:01:08;5.68;;;2.92;;
9108;SDS011;4590;51.462;6.692;2023-05-17T02:06:00;5.18;;;2.40;;
9108;SDS011;4590;51.462;6.692;2023-05-17T02:08:26;5.67;;;2.40;;
9108;SDS011;4590;51.462;6.692;2023-05-17T02:10:53;8.77;;;3.30;;
9108;SDS011;4590;51.462;6.692;2023-05-17T02:13:18;7.00;;;2.70;;
9108;SDS011;4590;51.462;6.692;2023-05-17T02:15:44;7.47;;;2.80;;
9108;SDS011;4590;51.462;6.692;2023-05-17T02:18:10;7.23;;;2.70;;
9108;SDS011;4590;51.462;6.692;2023-05-17T02:20:35;7.28;;;2.90;;
9108;SDS011;4590;51.462;6.692;2023-05-17T02:23:01;8.03;;;3.23;;
9108;SDS011;4590;51.462;6.692;2023-05-17T02:25:28;4.60;;;2.93;;
9108;SDS011;4590;51.462;6.692;2023-05-17T02:27:53;7.18;;;2.63;;
9108;SDS011;4590;51.462;6.692;2023-05-17T02:30:19;5.87;;;2.50;;
9108;SDS011;4590;51.462;6.692;2023-05-17T02:32:46;8.18;;;2.78;;
9108;SDS011;4590;51.462;6.692;2023-05-17T02:35:15;6.03;;;2.40;;
9108;SDS011;4590;51.462;6.692;2023-05-17T02:37:40;6.30;;;2.60;;
9108;SDS011;4590;51.462;6.692;2023-05-17T02:40:06;6.80;;;2.60;;
9108;SDS011;4590;51.462;6.692;2023-05-17T02:42:34;6.30;;;2.83;;
9108;SDS011;4590;51.462;6.692;2023-05-17T02:45:00;7.90;;;2.47;;
9108;SDS011;4590;51.462;6.692;2023-05-17T02:47:26;5.85;;;2.65;;
9108;SDS011;4590;51.462;6.692;2023-05-17T02:49:51;6.13;;;2.57;;
9108;SDS011;4590;51.462;6.692;2023-05-17T02:52:24;8.63;;;3.23;;
9108;SDS011;4590;51.462;6.692;2023-05-17T02:54:49;7.35;;;2.90;;
9108;SDS011;4590;51.462;6.692;2023-05-17T02:57:15;5.57;;;2.72;;
9108;SDS011;4590;51.462;6.692;2023-05-17T02:59:40;5.43;;;2.80;;
9108;SDS011;4590;51.462;6.692;2023-05-17T03:02:06;6.93;;;3.20;;
9108;SDS011;4590;51.462;6.692;2023-05-17T03:04:31;5.60;;;2.93;;
9108;SDS011;4590;51.462;6.692;2023-05-17T03:06:58;6.78;;;3.63;;
9108;SDS011;4590;51.462;6.692;2023-05-17T03:09:23;7.30;;;2.60;;
9108;SDS011;4590;51.462;6.692;2023-05-17T03:11:49;6.23;;;2.90;;
9108;SDS011;4590;51.462;6.692;2023-05-17T03:14:14;6.87;;;3.10;;
9108;SDS011;4590;51.462;6.692;2023-05-17T03:16:40;6.80;;;2.67;;
9108;SDS011;4590;51.462;6.692;2023-05-17T03:19:06;6.77;;;2.50;;
9108;SDS011;4590;51.462;6.692;2023-05-17T03:21:31;9.52;;;3.55;;
9108;SDS011;4590;51.462;6.692;2023-05-17T03:23:57;6.13;;;2.80;;
9108;SDS011;4590;51.462;6.692;2023-05-17T03:26:22;7.87;;;2.77;;
9108;SDS011;4590;51.462;6.692;2023-05-17T03:28:48;9.27;;;3.00;;
9108;SDS011;4590;51.462;6.692;2023-05-17T03:31:14;8.13;;;2.85;;
9108;SDS011;4590;51.462;6.692;2023-05-17T03:33:39;6.73;;;2.87;;
9108;SDS011;4590;51.462;6.692;2023-05-17T03:36:05;5.27;;;2.90;;
9108;SDS011;4590;51.462;6.692;2023-05-17T03:38:31;8.90;;;3.20;;
9108;SDS011;4590;51.462;6.692;2023-05-17T03:40:56;9.20;;;3.27;;
9108;SDS011;4590;51.462;6.692;2023-05-17T03:43:21;11.47;;;3.50;;
9108;SDS011;4590;51.462;6.692;2023-05-17T03:45:47;7.57;;;3.40;;
9108;SDS011;4590;51.462;6.692;2023-05-17T03:48:12;6.77;;;3.00;;
9108;SDS011;4590;51.462;6.692;2023-05-17T03:50:38;9.80;;;3.50;;
9108;SDS011;4590;51.462;6.692;2023-05-17T03:53:11;7.25;;;3.50;;
9108;SDS011;4590;51.462;6.692;2023-05-17T03:55:36;4.78;;;3.17;;
9108;SDS011;4590;51.462;6.692;2023-05-17T03:58:01;7.43;;;3.00;;
9108;SDS011;4590;51.462;6.692;2023-05-17T04:00:27;8.93;;;3.30;;
9108;SDS011;4590;51.462;6.692;2023-05-17T04:02:52;9.37;;;3.57;;
9108;SDS011;4590;51.462;6.692;2023-05-17T04:05:18;8.03;;;3.90;;
9108;SDS011;4590;51.462;6.692;2023-05-17T04:10:57;9.15;;;3.78;;
9108;SDS011;4590;51.462;6.692;2023-05-17T04:13:22;8.77;;;3.60;;
9108;SDS011;4590;51.462;6.692;2023-05-17T04:15:47;9.97;;;3.97;;
9108;SDS011;4590;51.462;6.692;2023-05-17T04:18:13;8.87;;;3.87;;
9108;SDS011;4590;51.462;6.692;2023-05-17T04:20:42;7.77;;;3.57;;
9108;SDS011;4590;51.462;6.692;2023-05-17T04:25:52;10.73;;;3.47;;
9108;SDS011;4590;51.462;6.692;2023-05-17T04:28:17;8.50;;;4.27;;
9108;SDS011;4590;51.462;6.692;2023-05-17T04:30:45;9.70;;;4.32;;
9108;SDS011;4590;51.462;6.692;2023-05-17T04:33:10;12.60;;;4.72;;
9108;SDS011;4590;51.462;6.692;2023-05-17T04:35:37;12.20;;;4.07;;
9108;SDS011;4590;51.462;6.692;2023-05-17T04:38:09;11.07;;;4.40;;
9108;SDS011;4590;51.462;6.692;2023-05-17T04:40:36;9.57;;;4.07;;
9108;SDS011;4590;51.462;6.692;2023-05-17T04:43:01;9.80;;;4.33;;
9108;SDS011;4590;51.462;6.692;2023-05-17T04:45:27;12.25;;;4.30;;
9108;SDS011;4590;51.462;6.692;2023-05-17T05:16:19;12.77;;;4.63;;
9108;SDS011;4590;51.462;6.692;2023-05-17T05:18:45;9.93;;;4.27;;
9108;SDS011;4590;51.462;6.692;2023-05-17T05:24:02;12.48;;;4.45;;
9108;SDS011;4590;51.462;6.692;2023-05-17T05:26:28;11.27;;;4.13;;
9108;SDS011;4590;51.462;6.692;2023-05-17T05:28:55;11.82;;;4.28;;
9108;SDS011;4590;51.462;6.692;2023-05-17T06:59:01;4.40;;;1.40;;
9108;SDS011;4590;51.462;6.692;2023-05-17T07:01:26;5.03;;;1.77;;
9108;SDS011;4590;51.462;6.692;2023-05-17T07:03:52;9.20;;;1.93;;
9108;SDS011;4590;51.462;6.692;2023-05-17T07:06:17;7.37;;;2.00;;
9108;SDS011;4590;51.462;6.692;2023-05-17T07:08:42;8.17;;;1.87;;
9108;SDS011;4590;51.462;6.692;2023-05-17T07:11:08;5.32;;;1.65;;
9108;SDS011;4590;51.462;6.692;2023-05-17T07:13:33;7.83;;;2.30;;
9108;SDS011;4590;51.462;6.692;2023-05-17T07:16:11;3.73;;;1.50;;
9108;SDS011;4590;51.462;6.692;2023-05-17T07:21:29;6.85;;;1.60;;
9108;SDS011;4590;51.462;6.692;2023-05-17T07:23:58;8.40;;;2.03;;
9108;SDS011;4590;51.462;6.692;2023-05-17T07:26:47;7.47;;;1.95;;
9108;SDS011;4590;51.462;6.692;2023-05-17T07:29:14;5.97;;;1.60;;
9108;SDS011;4590;51.462;6.692;2023-05-17T08:27:36;7.22;;;1.70;;
9108;SDS011;4590;51.462;6.692;2023-05-17T08:30:06;6.13;;;1.27;;
9108;SDS011;4590;51.462;6.692;2023-05-17T08:32:31;6.65;;;1.85;;
9108;SDS011;4590;51.462;6.692;2023-05-17T08:34:57;4.83;;;1.10;;
9108;SDS011;4590;51.462;6.692;2023-05-17T08:37:22;5.43;;;1.45;;
9108;SDS011;4590;51.462;6.692;2023-05-17T08:39:48;4.82;;;1.10;;
9108;SDS011;4590;51.462;6.692;2023-05-17T08:42:15;6.72;;;1.45;;
9108;SDS011;4590;51.462;6.692;2023-05-17T08:44:45;7.40;;;1.63;;
9108;SDS011;4590;51.462;6.692;2023-05-17T08:47:11;8.05;;;1.20;;
9108;SDS011;4590;51.462;6.692;2023-05-17T08:50:19;5.05;;;1.00;;
9108;SDS011;4590;51.462;6.692;2023-05-17T08:52:44;6.90;;;1.73;;
9108;SDS011;4590;51.462;6.692;2023-05-17T10:11:07;5.60;;;1.20;;
9108;SDS011;4590;51.462;6.692;2023-05-17T10:14:01;4.93;;;1.33;;
9108;SDS011;4590;51.462;6.692;2023-05-17T10:16:32;3.15;;;1.00;;
9108;SDS011;4590;51.462;6.692;2023-05-17T10:19:00;3.28;;;1.00;;
9108;SDS011;4590;51.462;6.692;2023-05-17T10:21:36;4.50;;;1.50;;
9108;SDS011;4590;51.462;6.692;2023-05-17T10:25:00;8.52;;;3.05;;
9108;SDS011;4590;51.462;6.692;2023-05-17T10:27:49;18.42;;;4.57;;
9108;SDS011;4590;51.462;6.692;2023-05-17T10:30:15;32.78;;;7.57;;
9108;SDS011;4590;51.462;6.692;2023-05-17T10:32:43;25.17;;;7.07;;
9108;SDS011;4590;51.462;6.692;2023-05-17T10:35:09;15.05;;;5.88;;
9108;SDS011;4590;51.462;6.692;2023-05-17T10:37:39;15.43;;;3.88;;
9108;SDS011;4590;51.462;6.692;2023-05-17T10:40:08;7.72;;;2.10;;
9108;SDS011;4590;51.462;6.692;2023-05-17T10:42:50;5.18;;;1.60;;
9108;SDS011;4590;51.462;6.692;2023-05-17T10:46:18;6.35;;;1.08;;
9108;SDS011;4590;51.462;6.692;2023-05-17T10:48:59;3.47;;;0.98;;
9108;SDS011;4590;51.462;6.692;2023-05-17T10:51:30;2.30;;;0.98;;
9108;SDS011;4590;51.462;6.692;2023-05-17T10:56:29;5.07;;;1.08;;
9108;SDS011;4590;51.462;6.692;2023-05-17T11:06:52;2.85;;;1.15;;
9108;SDS011;4590;51.462;6.692;2023-05-17T11:09:20;3.85;;;1.20;;
9108;SDS011;4590;51.462;6.692;2023-05-17T11:12:03;5.78;;;1.83;;
9108;SDS011;4590;51.462;6.692;2023-05-17T11:14:52;3.67;;;1.00;;
9108;SDS011;4590;51.462;6.692;2023-05-17T11:23:05;5.07;;;1.75;;
9108;SDS011;4590;51.462;6.692;2023-05-17T11:25:38;5.10;;;0.95;;
9108;SDS011;4590;51.462;6.692;2023-05-17T11:28:08;5.55;;;1.25;;
9108;SDS011;4590;51.462;6.692;2023-05-17T11:30:41;3.00;;;0.90;;
9108;SDS011;4590;51.462;6.692;2023-05-17T11:33:11;4.82;;;0.75;;
9108;SDS011;4590;51.462;6.692;2023-05-17T11:35:37;5.03;;;1.23;;
9108;SDS011;4590;51.462;6.692;2023-05-17T11:38:16;3.53;;;1.10;;
9108;SDS011;4590;51.462;6.692;2023-05-17T11:40:43;3.40;;;1.00;;
9108;SDS011;4590;51.462;6.692;2023-05-17T11:48:21;4.28;;;1.35;;
9108;SDS011;4590;51.462;6.692;2023-05-17T11:50:48;4.13;;;1.40;;
9108;SDS011;4590;51.462;6.692;2023-05-17T11:53:14;5.65;;;1.25;;
9108;SDS011;4590;51.462;6.692;2023-05-17T11:55:43;3.78;;;1.10;;
9108;SDS011;4590;51.462;6.692;2023-05-17T11:58:22;4.57;;;0.93;;
9108;SDS011;4590;51.462;6.692;2023-05-17T12:00:52;4.70;;;1.20;;
9108;SDS011;4590;51.462;6.692;2023-05-17T12:03:24;4.95;;;1.25;;
9108;SDS011;4590;51.462;6.692;2023-05-17T12:06:00;4.93;;;1.30;;
9108;SDS011;4590;51.462;6.692;2023-05-17T12:08:30;2.35;;;0.82;;
9108;SDS011;4590;51.462;6.692;2023-05-17T12:10:59;4.40;;;1.23;;
9108;SDS011;4590;51.462;6.692;2023-05-17T12:13:29;4.57;;;1.00;;
9108;SDS011;4590;51.462;6.692;2023-05-17T12:15:56;3.10;;;1.02;;
9108;SDS011;4590;51.462;6.692;2023-05-17T12:18:34;3.75;;;1.15;;
9108;SDS011;4590;51.462;6.692;2023-05-17T12:21:02;3.08;;;0.95;;
9108;SDS011;4590;51.462;6.692;2023-05-17T12:23:30;4.32;;;1.15;;
9108;SDS011;4590;51.462;6.692;2023-05-17T12:26:14;8.48;;;1.13;;
9108;SDS011;4590;51.462;6.692;2023-05-17T12:28:42;3.13;;;0.95;;
9108;SDS011;4590;51.462;6.692;2023-05-17T12:31:27;5.55;;;1.15;;
9108;SDS011;4590;51.462;6.692;2023-05-17T12:33:55;3.35;;;1.10;;
9108;SDS011;4590;51.462;6.692;2023-05-17T12:36:23;4.43;;;1.05;;
9108;SDS011;4590;51.462;6.692;2023-05-17T12:39:13;3.30;;;0.93;;
9108;SDS011;4590;51.462;6.692;2023-05-17T12:41:59;5.72;;;1.30;;
9108;SDS011;4590;51.462;6.692;2023-05-17T12:44:24;4.30;;;1.00;;
9108;SDS011;4590;51.462;6.692;2023-05-17T12:46:50;4.67;;;1.60;;
9108;SDS011;4590;51.462;6.692;2023-05-17T12:49:17;3.92;;;1.27;;
9108;SDS011;4590;51.462;6.692;2023-05-17T12:51:51;2.55;;;1.17;;
9108;SDS011;4590;51.462;6.692;2023-05-17T12:56:47;4.88;;;1.60;;
9108;SDS011;4590;51.462;6.692;2023-05-17T12:59:13;4.57;;;1.23;;
9108;SDS011;4590;51.462;6.692;2023-05-17T13:01:45;5.07;;;1.30;;
9108;SDS011;4590;51.462;6.692;2023-05-17T13:04:15;2.42;;;0.88;;
9108;SDS011;4590;51.462;6.692;2023-05-17T13:06:42;2.67;;;1.10;;
9108;SDS011;4590;51.462;6.692;2023-05-17T13:09:09;3.40;;;1.20;;
9108;SDS011;4590;51.462;6.692;2023-05-17T13:11:34;4.85;;;1.13;;
9108;SDS011;4590;51.462;6.692;2023-05-17T13:14:04;6.25;;;1.20;;
9108;SDS011;4590;51.462;6.692;2023-05-17T13:16:30;2.88;;;1.30;;
9108;SDS011;4590;51.462;6.692;2023-05-17T13:18:55;4.55;;;1.60;;
9108;SDS011;4590;51.462;6.692;2023-05-17T13:21:22;6.07;;;1.23;;
9108;SDS011;4590;51.462;6.692;2023-05-17T13:23:48;4.57;;;1.60;;
9108;SDS011;4590;51.462;6.692;2023-05-17T13:26:15;5.18;;;1.15;;
9108;SDS011;4590;51.462;6.692;2023-05-17T13:28:44;4.68;;;1.30;;
9108;SDS011;4590;51.462;6.692;2023-05-17T13:31:10;3.45;;;1.10;;
9108;SDS011;4590;51.462;6.692;2023-05-17T13:33:35;3.47;;;1.27;;
9108;SDS011;4590;51.462;6.692;2023-05-17T13:36:00;4.80;;;1.27;;
9108;SDS011;4590;51.462;6.692;2023-05-17T13:38:26;6.73;;;1.37;;
9108;SDS011;4590;51.462;6.692;2023-05-17T13:40:51;4.03;;;1.07;;
9108;SDS011;4590;51.462;6.692;2023-05-17T13:43:16;4.27;;;1.27;;
9108;SDS011;4590;51.462;6.692;2023-05-17T13:45:42;4.72;;;1.30;;
9108;SDS011;4590;51.462;6.692;2023-05-17T13:48:07;4.13;;;1.23;;
9108;SDS011;4590;51.462;6.692;2023-05-17T13:50:33;6.57;;;1.80;;
9108;SDS011;4590;51.462;6.692;2023-05-17T13:53:00;3.78;;;1.30;;
9108;SDS011;4590;51.462;6.692;2023-05-17T13:55:27;4.30;;;1.50;;
9108;SDS011;4590;51.462;6.692;2023-05-17T13:57:53;3.70;;;1.63;;
9108;SDS011;4590;51.462;6.692;2023-05-17T14:00:18;3.33;;;1.20;;
9108;SDS011;4590;51.462;6.692;2023-05-17T14:02:44;5.70;;;1.40;;
9108;SDS011;4590;51.462;6.692;2023-05-17T14:05:10;4.22;;;1.27;;
9108;SDS011;4590;51.462;6.692;2023-05-17T14:07:37;3.70;;;1.17;;
9108;SDS011;4590;51.462;6.692;2023-05-17T14:13:50;5.53;;;1.38;;
9108;SDS011;4590;51.462;6.692;2023-05-17T14:16:15;6.07;;;1.55;;
9108;SDS011;4590;51.462;6.692;2023-05-17T14:18:41;4.20;;;1.30;;
9108;SDS011;4590;51.462;6.692;2023-05-17T14:28:22;4.30;;;1.30;;
9108;SDS011;4590;51.462;6.692;2023-05-17T14:30:48;6.22;;;1.73;;
9108;SDS011;4590;51.462;6.692;2023-05-17T15:14:50;5.20;;;1.88;;
9108;SDS011;4590;51.462;6.692;2023-05-17T15:18:04;3.42;;;1.33;;
9108;SDS011;4590;51.462;6.692;2023-05-17T15:24:21;6.18;;;1.60;;
9108;SDS011;4590;51.462;6.692;2023-05-17T15:58:46;5.93;;;1.60;;
9108;SDS011;4590;51.462;6.692;2023-05-17T16:01:35;5.20;;;1.65;;
9108;SDS011;4590;51.462;6.692;2023-05-17T16:04:02;5.97;;;1.75;;
9108;SDS011;4590;51.462;6.692;2023-05-17T17:01:36;4.40;;;1.30;;
9108;SDS011;4590;51.462;6.692;2023-05-17T17:11:40;4.53;;;1.30;;
9108;SDS011;4590;51.462;6.692;2023-05-17T17:15:03;5.38;;;1.58;;
9108;SDS011;4590;51.462;6.692;2023-05-17T17:18:07;5.78;;;1.70;;
9108;SDS011;4590;51.462;6.692;2023-05-17T17:25:01;6.53;;;1.80;;
9108;SDS011;4590;51.462;6.692;2023-05-17T17:28:24;6.13;;;2.10;;
9108;SDS011;4590;51.462;6.692;2023-05-17T17:31:10;9.10;;;1.55;;
9108;SDS011;4590;51.462;6.692;2023-05-17T17:33:56;7.07;;;1.80;;
9108;SDS011;4590;51.462;6.692;2023-05-17T17:37:14;5.82;;;1.63;;
9108;SDS011;4590;51.462;6.692;2023-05-17T17:39:43;6.07;;;1.50;;
9108;SDS011;4590;51.462;6.692;2023-05-17T18:46:25;4.30;;;1.30;;
9108;SDS011;4590;51.462;6.692;2023-05-17T18:55:44;6.18;;;1.48;;
9108;SDS011;4590;51.462;6.692;2023-05-17T18:59:10;5.25;;;1.15;;
9108;SDS011;4590;51.462;6.692;2023-05-17T19:02:35;6.50;;;1.65;;
9108;SDS011;4590;51.462;6.692;2023-05-17T19:12:49;4.45;;;1.17;;
9108;SDS011;4590;51.462;6.692;2023-05-17T19:16:13;5.10;;;1.58;;
9108;SDS011;4590;51.462;6.692;2023-05-17T19:19:40;6.28;;;1.20;;
9108;SDS011;4590;51.462;6.692;2023-05-17T19:22:40;5.97;;;1.60;;
9108;SDS011;4590;51.462;6.692;2023-05-17T19:25:53;6.68;;;1.23;;
9108;SDS011;4590;51.462;6.692;2023-05-17T19:29:16;5.95;;;1.30;;
9108;SDS011;4590;51.462;6.692;2023-05-17T19:32:19;5.28;;;1.40;;
9108;SDS011;4590;51.462;6.692;2023-05-17T19:34:50;5.82;;;1.27;;
9108;SDS011;4590;51.462;6.692;2023-05-17T19:37:15;4.43;;;1.30;;
9108;SDS011;4590;51.462;6.692;2023-05-17T19:39:41;5.53;;;1.23;;
9108;SDS011;4590;51.462;6.692;2023-05-17T19:46:08;4.32;;;1.13;;
9108;SDS011;4590;51.462;6.692;2023-05-17T19:49:28;5.70;;;1.42;;
9108;SDS011;4590;51.462;6.692;2023-05-17T19:52:50;5.85;;;1.35;;
9108;SDS011;4590;51.462;6.692;2023-05-17T19:55:35;6.05;;;1.38;;
9108;SDS011;4590;51.462;6.692;2023-05-17T19:58:01;5.40;;;1.37;;
9108;SDS011;4590;51.462;6.692;2023-05-17T20:00:28;5.43;;;1.50;;
9108;SDS011;4590;51.462;6.692;2023-05-17T21:05:55;9.35;;;1.52;;
9108;SDS011;4590;51.462;6.692;2023-05-17T21:08:20;9.23;;;1.88;;
9108;SDS011;4590;51.462;6.692;2023-05-17T21:10:46;9.90;;;1.80;;
9108;SDS011;4590;51.462;6.692;2023-05-17T21:13:13;8.40;;;2.40;;
9108;SDS011;4590;51.462;6.692;2023-05-17T21:15:39;10.60;;;2.07;;
9108;SDS011;4590;51.462;6.692;2023-05-17T21:18:05;6.10;;;1.98;;
9108;SDS011;4590;51.462;6.692;2023-05-17T21:20:32;10.40;;;2.80;;
9108;SDS011;4590;51.462;6.692;2023-05-17T21:22:57;10.57;;;3.33;;
9108;SDS011;4590;51.462;6.692;2023-05-17T21:25:23;7.93;;;2.58;;
9108;SDS011;4590;51.462;6.692;2023-05-17T21:27:48;10.03;;;3.40;;
9108;SDS011;4590;51.462;6.692;2023-05-17T21:30:14;8.32;;;2.90;;
9108;SDS011;4590;51.462;6.692;2023-05-17T21:32:40;6.90;;;2.30;;
9108;SDS011;4590;51.462;6.692;2023-05-17T21:35:05;8.27;;;1.97;;
9108;SDS011;4590;51.462;6.692;2023-05-17T21:37:31;6.32;;;1.92;;
9108;SDS011;4590;51.462;6.692;2023-05-17T21:39:56;5.00;;;1.33;;
9108;SDS011;4590;51.462;6.692;2023-05-17T21:42:21;4.63;;;1.10;;
9108;SDS011;4590;51.462;6.692;2023-05-17T21:44:47;5.47;;;1.70;;
9108;SDS011;4590;51.462;6.692;2023-05-17T21:47:12;7.73;;;1.90;;
9108;SDS011;4590;51.462;6.692;2023-05-17T21:49:37;4.93;;;1.80;;
9108;SDS011;4590;51.462;6.692;2023-05-17T21:52:02;6.27;;;1.87;;
9108;SDS011;4590;51.462;6.692;2023-05-17T21:54:28;9.27;;;1.93;;
9108;SDS011;4590;51.462;6.692;2023-05-17T21:56:53;4.27;;;1.30;;
9108;SDS011;4590;51.462;6.692;2023-05-17T21:59:18;8.27;;;1.60;;
9108;SDS011;4590;51.462;6.692;2023-05-17T22:01:44;6.37;;;1.77;;
9108;SDS011;4590;51.462;6.692;2023-05-17T22:04:09;6.53;;;1.57;;
9108;SDS011;4590;51.462;6.692;2023-05-17T22:06:35;3.90;;;1.97;;
9108;SDS011;4590;51.462;6.692;2023-05-17T22:09:00;5.67;;;2.10;;
9108;SDS011;4590;51.462;6.692;2023-05-17T22:11:25;5.30;;;1.63;;
9108;SDS011;4590;51.462;6.692;2023-05-17T22:13:51;5.10;;;1.73;;
9108;SDS011;4590;51.462;6.692;2023-05-17T22:16:18;7.30;;;2.65;;
9108;SDS011;4590;51.462;6.692;2023-05-17T22:18:46;8.32;;;1.83;;
9108;SDS011;4590;51.462;6.692;2023-05-17T22:21:11;5.73;;;2.20;;
9108;SDS011;4590;51.462;6.692;2023-05-17T22:23:38;6.80;;;2.00;;
9108;SDS011;4590;51.462;6.692;2023-05-17T22:26:06;8.32;;;1.52;;
9108;SDS011;4590;51.462;6.692;2023-05-17T22:28:31;8.60;;;1.95;;
9108;SDS011;4590;51.462;6.692;2023-05-17T22:30:57;9.80;;;1.80;;
9108;SDS011;4590;51.462;6.692;2023-05-17T22:33:22;3.57;;;1.60;;
9108;SDS011;4590;51.462;6.692;2023-05-17T22:35:47;6.53;;;1.83;;
9108;SDS011;4590;51.462;6.692;2023-05-17T22:38:19;7.50;;;1.80;;
9108;SDS011;4590;51.462;6.692;2023-05-17T22:40:44;6.65;;;1.90;;
9108;SDS011;4590;51.462;6.692;2023-05-17T22:43:10;7.80;;;2.07;;
9108;SDS011;4590;51.462;6.692;2023-05-17T22:45:35;6.23;;;2.20;;
9108;SDS011;4590;51.462;6.692;2023-05-17T22:48:01;7.90;;;2.00;;
9108;SDS011;4590;51.462;6.692;2023-05-17T22:52:54;3.85;;;1.77;;
9108;SDS011;4590;51.462;6.692;2023-05-17T22:55:22;4.05;;;1.50;;
9108;SDS011;4590;51.462;6.692;2023-05-17T22:57:48;5.13;;;1.83;;
9108;SDS011;4590;51.462;6.692;2023-05-17T23:00:13;6.73;;;1.70;;
9108;SDS011;4590;51.462;6.692;2023-05-17T23:02:39;7.25;;;2.35;;
9108;SDS011;4590;51.462;6.692;2023-05-17T23:05:04;5.37;;;1.60;;
9108;SDS011;4590;51.462;6.692;2023-05-17T23:07:30;5.00;;;1.70;;
9108;SDS011;4590;51.462;6.692;2023-05-17T23:10:04;5.95;;;1.80;;
9108;SDS011;4590;51.462;6.692;2023-05-17T23:12:30;5.38;;;1.55;;
9108;SDS011;4590;51.462;6.692;2023-05-17T23:14:57;7.03;;;1.50;;
9108;SDS011;4590;51.462;6.692;2023-05-17T23:17:22;4.43;;;2.10;;
9108;SDS011;4590;51.462;6.692;2023-05-17T23:19:48;9.25;;;1.73;;
9108;SDS011;4590;51.462;6.692;2023-05-17T23:22:14;4.95;;;1.60;;
9108;SDS011;4590;51.462;6.692;2023-05-17T23:24:40;4.75;;;1.70;;
9108;SDS011;4590;51.462;6.692;2023-05-17T23:27:05;6.60;;;2.20;;
9108;SDS011;4590;51.462;6.692;2023-05-17T23:29:34;7.82;;;2.38;;
9108;SDS011;4590;51.462;6.692;2023-05-17T23:32:00;7.13;;;1.85;;
9108;SDS011;4590;51.462;6.692;2023-05-17T23:34:25;6.00;;;1.80;;
9108;SDS011;4590;51.462;6.692;2023-05-17T23:36:50;5.17;;;1.70;;
9108;SDS011;4590;51.462;6.692;2023-05-17T23:39:16;3.63;;;1.70;;
9108;SDS011;4590;51.462;6.692;2023-05-17T23:41:41;7.23;;;2.17;;
9108;SDS011;4590;51.462;6.692;2023-05-17T23:44:06;5.20;;;1.70;;
9108;SDS011;4590;51.462;6.692;2023-05-17T23:46:32;5.87;;;1.53;;
9108;SDS011;4590;51.462;6.692;2023-05-17T23:48:58;6.00;;;1.70;;
9108;SDS011;4590;51.462;6.692;2023-05-17T23:51:23;6.33;;;1.73;;
9108;SDS011;4590;51.462;6.692;2023-05-17T23:53:48;5.07;;;2.07;;
9108;SDS011;4590;51.462;6.692;2023-05-17T23:56:17;5.43;;;1.90;;
9108;SDS011;4590;51.462;6.692;2023-05-17T23:58:43;6.88;;;1.70;;
